createdAt,value
2022-11-27T00:01:03.127Z,4.40
2022-11-27T00:05:07.850Z,5.32
2022-11-27T00:10:07.855Z,4.82
2022-11-27T00:15:09.298Z,4.85
2022-11-27T00:20:08.019Z,5.35
2022-11-27T00:25:07.749Z,5.00
2022-11-27T00:30:08.467Z,6.03
2022-11-27T00:35:08.189Z,4.63
2022-11-27T00:40:07.920Z,4.35
2022-11-27T00:45:08.720Z,4.78
2022-11-27T00:50:08.446Z,4.75
2022-11-27T00:55:08.140Z,5.18
2022-11-27T01:00:07.838Z,4.75
2022-11-27T01:05:07.746Z,4.75
2022-11-27T01:10:08.459Z,4.68
2022-11-27T01:15:08.155Z,5.35
2022-11-27T01:20:07.921Z,4.68
2022-11-27T01:25:08.627Z,4.53
2022-11-27T01:30:08.341Z,4.60
2022-11-27T01:35:08.067Z,4.47
2022-11-27T01:40:07.811Z,4.38
2022-11-27T01:45:08.501Z,4.45
2022-11-27T01:50:08.194Z,4.22
2022-11-27T01:55:07.899Z,4.28
2022-11-27T02:00:08.589Z,4.20
2022-11-27T02:05:08.315Z,4.10
2022-11-27T02:10:08.031Z,4.72
2022-11-27T02:15:07.749Z,3.72
2022-11-27T02:20:08.484Z,3.72
2022-11-27T02:25:08.227Z,3.78
2022-11-27T02:30:07.949Z,3.75
2022-11-27T02:35:07.694Z,4.10
2022-11-27T02:40:08.447Z,3.95
2022-11-27T02:45:08.152Z,3.90
2022-11-27T02:50:07.860Z,3.83
2022-11-27T02:55:08.617Z,3.65
2022-11-27T03:00:08.338Z,3.08
2022-11-27T03:05:08.046Z,3.33
2022-11-27T03:10:07.735Z,3.00
2022-11-27T03:15:08.458Z,3.70
2022-11-27T03:20:08.193Z,3.22
2022-11-27T03:25:07.928Z,3.58
2022-11-27T03:30:08.671Z,3.42
2022-11-27T03:35:08.393Z,4.10
2022-11-27T03:40:08.114Z,3.50
2022-11-27T03:45:07.798Z,3.58
2022-11-27T03:50:12.561Z,3.70
2022-11-27T03:55:08.463Z,3.45
2022-11-27T04:00:08.190Z,3.83
2022-11-27T04:05:07.911Z,3.75
2022-11-27T04:10:08.634Z,4.18
2022-11-27T04:15:08.337Z,3.92
2022-11-27T04:20:08.056Z,4.10
2022-11-27T04:25:07.736Z,4.57
2022-11-27T04:30:08.443Z,4.05
2022-11-27T04:35:08.120Z,3.70
2022-11-27T04:40:07.847Z,4.45
2022-11-27T04:45:08.561Z,4.22
2022-11-27T04:50:08.297Z,4.80
2022-11-27T04:55:08.026Z,5.07
2022-11-27T05:00:07.753Z,4.90
2022-11-27T05:05:02.587Z,5.50
2022-11-27T05:10:02.856Z,5.50
2022-11-27T05:15:04.615Z,6.25
2022-11-27T05:20:02.709Z,6.13
2022-11-27T05:25:02.537Z,6.05
2022-11-27T05:30:02.493Z,6.18
2022-11-27T05:35:02.282Z,7.15
2022-11-27T05:40:02.129Z,7.07
2022-11-27T05:45:01.933Z,6.90
2022-11-27T05:50:01.792Z,6.30
2022-11-27T05:55:02.633Z,7.53
2022-11-27T06:00:02.529Z,7.38
2022-11-27T06:05:02.378Z,6.85
2022-11-27T06:10:02.215Z,6.93
2022-11-27T06:15:02.044Z,7.57
2022-11-27T06:20:01.876Z,7.00
2022-11-27T06:25:02.725Z,6.78
2022-11-27T06:30:02.552Z,7.13
2022-11-27T06:35:02.407Z,7.10
2022-11-27T06:40:02.312Z,7.45
2022-11-27T06:45:02.155Z,7.05
2022-11-27T06:50:01.965Z,5.95
2022-11-27T06:55:01.917Z,7.18
2022-11-27T07:00:02.863Z,5.82
2022-11-27T07:05:02.884Z,6.97
2022-11-27T07:10:02.877Z,7.43
2022-11-27T07:15:04.343Z,7.00
2022-11-27T07:20:02.576Z,6.57
2022-11-27T07:25:02.499Z,7.07
2022-11-27T07:30:02.429Z,7.40
2022-11-27T07:35:02.271Z,7.13
2022-11-27T07:40:03.216Z,5.63
2022-11-27T07:45:02.454Z,6.25
2022-11-27T07:50:02.257Z,6.30
2022-11-27T07:55:02.081Z,5.88
2022-11-27T08:00:01.961Z,6.10
2022-11-27T08:05:01.780Z,5.07
2022-11-27T08:10:02.630Z,5.60
2022-11-27T08:15:02.438Z,6.30
2022-11-27T08:20:02.253Z,5.72
2022-11-27T08:25:02.110Z,5.82
2022-11-27T08:30:01.928Z,5.75
2022-11-27T08:35:02.880Z,5.07
2022-11-27T08:40:02.743Z,6.50
2022-11-27T08:45:02.637Z,5.18
2022-11-27T08:50:02.484Z,5.13
2022-11-27T08:55:02.313Z,6.43
2022-11-27T09:00:02.140Z,6.05
2022-11-27T09:05:01.946Z,5.57
2022-11-27T09:10:01.756Z,6.07
2022-11-27T09:15:02.613Z,6.68
2022-11-27T09:20:02.804Z,5.30
2022-11-27T09:25:02.570Z,5.47
2022-11-27T09:30:02.409Z,5.57
2022-11-27T09:35:02.420Z,5.20
2022-11-27T09:40:02.366Z,4.68
2022-11-27T09:45:02.317Z,5.30
2022-11-27T09:50:02.226Z,5.00
2022-11-27T09:55:12.070Z,0
2022-11-27T10:00:02.012Z,5.65
2022-11-27T10:05:14.887Z,5.47
2022-11-27T10:10:02.175Z,5.47
2022-11-27T10:15:02.013Z,5.93
2022-11-27T10:20:01.857Z,5.35
2022-11-27T10:25:02.675Z,4.82
2022-11-27T10:30:02.475Z,5.00
2022-11-27T10:35:12.395Z,0
2022-11-27T10:40:02.364Z,5.60
2022-11-27T10:45:02.187Z,5.40
2022-11-27T10:50:02.103Z,4.75
2022-11-27T10:55:02.137Z,4.47
2022-11-27T11:00:02.250Z,4.55
2022-11-27T11:05:24.481Z,4.53
2022-11-27T11:10:02.471Z,4.15
2022-11-27T11:15:02.340Z,4.75
2022-11-27T11:20:02.271Z,3.97
2022-11-27T11:25:02.121Z,4.43
2022-11-27T11:30:02.006Z,4.57
2022-11-27T11:35:11.878Z,0
2022-11-27T11:40:02.940Z,5.20
2022-11-27T11:45:01.780Z,5.38
2022-11-27T11:50:02.690Z,4.85
2022-11-27T11:55:02.606Z,5.10
2022-11-27T12:00:02.454Z,5.10
2022-11-27T12:05:02.406Z,4.55
2022-11-27T12:10:02.258Z,4.07
2022-11-27T12:15:12.424Z,0
2022-11-27T12:20:02.311Z,4.05
2022-11-27T12:25:02.274Z,4.20
2022-11-27T12:30:02.269Z,4.25
2022-11-27T12:35:02.393Z,4.32
2022-11-27T12:40:02.409Z,4.10
2022-11-27T12:45:12.472Z,0
2022-11-27T12:50:02.489Z,3.63
2022-11-27T12:55:02.346Z,4.22
2022-11-27T13:00:02.241Z,3.65
2022-11-27T13:05:02.133Z,4.63
2022-11-27T13:10:01.991Z,4.80
2022-11-27T13:15:01.842Z,4.40
2022-11-27T13:20:02.619Z,5.00
2022-11-27T13:25:02.462Z,4.00
2022-11-27T13:30:08.046Z,4.75
2022-11-27T13:35:01.939Z,4.10
2022-11-27T13:40:02.769Z,4.40
2022-11-27T13:45:02.615Z,4.20
2022-11-27T13:50:02.466Z,4.13
2022-11-27T13:55:02.521Z,4.85
2022-11-27T14:00:02.539Z,5.00
2022-11-27T14:05:02.419Z,4.97
2022-11-27T14:10:02.264Z,4.18
2022-11-27T14:15:02.073Z,5.15
2022-11-27T14:20:01.873Z,5.03
2022-11-27T14:25:02.858Z,4.70
2022-11-27T14:30:02.701Z,5.10
2022-11-27T14:35:02.548Z,4.85
2022-11-27T14:40:02.609Z,4.68
2022-11-27T14:45:02.492Z,4.70
2022-11-27T14:50:02.469Z,4.97
2022-11-27T14:55:02.334Z,5.65
2022-11-27T15:00:02.241Z,6.43
2022-11-27T15:05:02.243Z,4.32
2022-11-27T15:10:02.273Z,5.20
2022-11-27T15:15:02.237Z,4.90
2022-11-27T15:20:02.259Z,4.80
2022-11-27T15:25:02.258Z,4.60
2022-11-27T15:30:02.288Z,4.38
2022-11-27T15:35:02.440Z,5.00
2022-11-27T15:40:12.291Z,0
2022-11-27T15:45:05.338Z,0
2022-11-27T15:50:02.305Z,4.57
2022-11-27T15:55:02.284Z,4.50
2022-11-27T16:00:02.086Z,4.28
2022-11-27T16:05:06.956Z,4.75
2022-11-27T16:10:01.909Z,4.03
2022-11-27T16:15:02.723Z,3.78
2022-11-27T16:20:02.658Z,4.07
2022-11-27T16:25:02.501Z,3.65
2022-11-27T16:30:02.388Z,3.45
2022-11-27T16:35:02.485Z,4.53
2022-11-27T16:40:02.345Z,3.83
2022-11-27T16:45:02.314Z,4.35
2022-11-27T16:50:02.307Z,3.95
2022-11-27T16:55:02.399Z,3.47
2022-11-27T17:00:02.379Z,3.40
2022-11-27T17:05:02.256Z,4.13
2022-11-27T17:10:02.359Z,4.05
2022-11-27T17:15:02.244Z,4.18
2022-11-27T17:20:02.202Z,5.13
2022-11-27T17:25:02.121Z,6.47
2022-11-27T17:30:01.943Z,4.20
2022-11-27T17:35:01.930Z,3.75
2022-11-27T17:40:03.066Z,3.60
2022-11-27T17:45:02.227Z,3.50
2022-11-27T17:50:02.423Z,4.20
2022-11-27T17:55:02.658Z,4.20
2022-11-27T18:00:02.653Z,3.40
2022-11-27T18:05:02.552Z,4.03
2022-11-27T18:10:02.480Z,3.75
2022-11-27T18:15:02.424Z,3.72
2022-11-27T18:20:02.312Z,3.63
2022-11-27T18:25:02.225Z,3.45
2022-11-27T18:30:02.133Z,3.72
2022-11-27T18:35:02.311Z,3.70
2022-11-27T18:40:02.230Z,3.70
2022-11-27T18:45:02.385Z,3.42
2022-11-27T18:50:02.309Z,3.55
2022-11-27T18:55:02.230Z,3.25
2022-11-27T19:00:02.129Z,3.35
2022-11-27T19:05:01.954Z,3.60
2022-11-27T19:10:01.868Z,3.17
2022-11-27T19:15:02.721Z,3.67
2022-11-27T19:20:02.627Z,3.47
2022-11-27T19:25:02.719Z,3.85
2022-11-27T19:30:02.501Z,3.97
2022-11-27T19:35:06.904Z,3.60
2022-11-27T19:40:02.380Z,3.58
2022-11-27T19:45:02.284Z,4.32
2022-11-27T19:50:02.292Z,4.50
2022-11-27T19:55:02.491Z,4.35
2022-11-27T20:00:02.412Z,4.10
2022-11-27T20:05:02.306Z,3.55
2022-11-27T20:10:02.339Z,4.15
2022-11-27T20:15:02.175Z,4.18
2022-11-27T20:20:02.230Z,3.65
2022-11-27T20:25:18.919Z,3.75
2022-11-27T20:30:02.651Z,3.25
2022-11-27T20:35:02.739Z,4.03
2022-11-27T20:40:02.746Z,4.90
2022-11-27T20:45:02.725Z,4.47
2022-11-27T20:50:02.775Z,4.70
2022-11-27T20:55:02.837Z,4.68
2022-11-27T21:00:02.950Z,4.68
2022-11-27T21:05:01.988Z,5.15
2022-11-27T21:10:01.895Z,4.70
2022-11-27T21:15:02.772Z,3.85
2022-11-27T21:20:03.001Z,3.88
2022-11-27T21:25:01.923Z,3.80
2022-11-27T21:30:02.974Z,3.40
2022-11-27T21:35:01.826Z,3.47
2022-11-27T21:40:02.733Z,3.78
2022-11-27T21:45:02.673Z,3.92
2022-11-27T21:50:02.525Z,4.00
2022-11-27T21:55:04.658Z,3.40
2022-11-27T22:00:02.395Z,4.03
2022-11-27T22:05:02.305Z,3.78
2022-11-27T22:10:02.355Z,3.85
2022-11-27T22:15:02.264Z,4.03
2022-11-27T22:20:02.248Z,3.75
2022-11-27T22:25:02.020Z,4.20
2022-11-27T22:30:01.961Z,4.32
2022-11-27T22:35:14.644Z,4.43
2022-11-27T22:40:08.373Z,3.95
2022-11-27T22:45:08.071Z,4.00
2022-11-27T22:50:08.128Z,3.92
2022-11-27T22:55:07.874Z,4.20
2022-11-27T23:00:08.686Z,4.38
2022-11-27T23:05:08.370Z,3.80
2022-11-27T23:10:08.105Z,4.68
2022-11-27T23:15:07.806Z,4.65
2022-11-27T23:20:08.513Z,4.15
2022-11-27T23:25:08.319Z,4.13
2022-11-27T23:30:08.035Z,4.50
2022-11-27T23:35:07.763Z,4.28
2022-11-27T23:40:08.539Z,4.50
2022-11-27T23:45:08.255Z,4.60
2022-11-27T23:50:07.969Z,4.60
2022-11-27T23:55:07.691Z,4.07
